Portada
METAR-TAF:

METAR-TAF

Aeroports :

València, Espanya

latitud: 39-37-26N, longitud: 0-28-26W, altitud: 127 m

Observació

L'informe es va fer fa 28 minuts, a les 15:00 UTC
Vent 4 kt del Est/Sud-Est, variant entre Est i Sud
Temperatura 14°C
Humitat 77%
Pressió 1030 hPa
Visibilitat 10 km o més
Núvols disperses a una alçada de 1800 ft
Cel cobert a una alçada de 3300 ft

METAR: LEBT 181500Z AUTO 12004KT 080V190 9999 SCT018 OVC033 14/10 Q1030

Hora: 16:28 (15:28 UTC)


TAF: manca

Observacions i pronòstics meteorològics de més de 4000 aeroports (METAR i TAF).

Les estacions disponibles són els punts grocs i vermells al mapa.

Posi el ratolí al punt desitjat per veure el nom de l'estació.

Feu clic per veure les observacions i els pronòstics meteorològics.

Per canviar el mapa: feu clic els botons verds amb una creu de color negre per apropar; al botó verd amb un guió per allunyar la imatge; o en les fletxes verdes per a mapes adjacents.


METAR-TAF: